sensor_id;sensor_type;location;lat;lon;timestamp;pressure;altitude;pressure_sealevel;temperature;humidity
33486;BME280;19824;52.098;5.004;2023-03-20T06:02:43;101901.56;;;9.34;85.78
33486;BME280;19824;52.098;5.004;2023-03-20T06:05:26;101900.81;;;9.32;85.92
33486;BME280;19824;52.098;5.004;2023-03-20T06:07:56;101903.13;;;9.37;85.83
33486;BME280;19824;52.098;5.004;2023-03-20T06:10:33;101900.94;;;9.31;85.82
33486;BME280;19824;52.098;5.004;2023-03-20T06:13:03;101899.97;;;9.32;86.05
33486;BME280;19824;52.098;5.004;2023-03-20T06:15:40;101905.03;;;9.35;86.27
33486;BME280;19824;52.098;5.004;2023-03-20T06:18:12;101914.00;;;9.34;85.87
33486;BME280;19824;52.098;5.004;2023-03-20T06:20:51;101913.00;;;9.35;86.04
33486;BME280;19824;52.098;5.004;2023-03-20T06:23:23;101915.69;;;9.35;86.42
33486;BME280;19824;52.098;5.004;2023-03-20T06:26:00;101910.16;;;9.38;86.75
33486;BME280;19824;52.098;5.004;2023-03-20T06:28:37;101924.63;;;9.34;86.98
33486;BME280;19824;52.098;5.004;2023-03-20T06:31:07;101920.78;;;9.38;86.84
33486;BME280;19824;52.098;5.004;2023-03-20T06:33:46;101917.63;;;9.33;86.77
33486;BME280;19824;52.098;5.004;2023-03-20T06:36:17;101921.00;;;9.35;87.29
33486;BME280;19824;52.098;5.004;2023-03-20T06:38:55;101925.03;;;9.40;86.44
33486;BME280;19824;52.098;5.004;2023-03-20T06:41:25;101925.03;;;9.40;86.53
33486;BME280;19824;52.098;5.004;2023-03-20T06:44:02;101923.34;;;9.39;86.46
33486;BME280;19824;52.098;5.004;2023-03-20T06:46:32;101925.66;;;9.44;86.81
33486;BME280;19824;52.098;5.004;2023-03-20T06:49:11;101932.69;;;9.45;86.51
33486;BME280;19824;52.098;5.004;2023-03-20T06:51:43;101924.72;;;9.45;86.33
33486;BME280;19824;52.098;5.004;2023-03-20T06:54:20;101923.97;;;9.43;87.06
33486;BME280;19824;52.098;5.004;2023-03-20T06:56:50;101926.91;;;9.51;86.89
33486;BME280;19824;52.098;5.004;2023-03-20T06:59:27;101926.41;;;9.46;86.61
33486;BME280;19824;52.098;5.004;2023-03-20T07:01:57;101930.03;;;9.45;86.66
33486;BME280;19824;52.098;5.004;2023-03-20T07:04:37;101938.84;;;9.45;87.25
33486;BME280;19824;52.098;5.004;2023-03-20T07:07:07;101934.19;;;9.49;86.84
33486;BME280;19824;52.098;5.004;2023-03-20T07:09:44;101944.81;;;9.49;87.05
33486;BME280;19824;52.098;5.004;2023-03-20T07:12:16;101933.63;;;9.56;86.82
33486;BME280;19824;52.098;5.004;2023-03-20T07:14:53;101939.03;;;9.55;86.92
33486;BME280;19824;52.098;5.004;2023-03-20T07:17:26;101936.69;;;9.63;86.40
33486;BME280;19824;52.098;5.004;2023-03-20T07:20:07;101928.72;;;9.63;86.52
33486;BME280;19824;52.098;5.004;2023-03-20T07:22:38;101934.66;;;9.66;86.79
33486;BME280;19824;52.098;5.004;2023-03-20T07:25:15;101938.88;;;9.68;86.32
33486;BME280;19824;52.098;5.004;2023-03-20T07:28:01;101929.13;;;9.69;86.63
33486;BME280;19824;52.098;5.004;2023-03-20T07:30:38;101939.09;;;9.66;87.00
33486;BME280;19824;52.098;5.004;2023-03-20T07:33:08;101932.59;;;9.69;86.69
33486;BME280;19824;52.098;5.004;2023-03-20T07:35:51;101938.13;;;9.79;86.33
33486;BME280;19824;52.098;5.004;2023-03-20T07:38:22;101939.06;;;9.78;86.47
33486;BME280;19824;52.098;5.004;2023-03-20T07:40:59;101939.38;;;9.86;86.06
33486;BME280;19824;52.098;5.004;2023-03-20T07:43:29;101935.75;;;9.87;86.49
33486;BME280;19824;52.098;5.004;2023-03-20T07:46:07;101937.22;;;9.91;86.08
33486;BME280;19824;52.098;5.004;2023-03-20T07:48:44;101937.97;;;9.93;85.84
33486;BME280;19824;52.098;5.004;2023-03-20T07:51:16;101937.22;;;9.91;85.83
33486;BME280;19824;52.098;5.004;2023-03-20T07:53:53;101942.94;;;9.97;85.95
33486;BME280;19824;52.098;5.004;2023-03-20T07:56:29;101942.75;;;10.00;86.12
33486;BME280;19824;52.098;5.004;2023-03-20T07:58:59;101938.16;;;10.02;86.27
33486;BME280;19824;52.098;5.004;2023-03-20T08:01:36;101941.13;;;10.10;85.57
33486;BME280;19824;52.098;5.004;2023-03-20T08:04:13;101943.53;;;10.13;85.52
33486;BME280;19824;52.098;5.004;2023-03-20T08:06:49;101948.19;;;10.22;85.96
33486;BME280;19824;52.098;5.004;2023-03-20T08:09:25;101937.06;;;10.28;85.68
33486;BME280;19824;52.098;5.004;2023-03-20T08:11:55;101943.34;;;10.27;85.61
33486;BME280;19824;52.098;5.004;2023-03-20T08:14:32;101933.34;;;10.31;84.85
33486;BME280;19824;52.098;5.004;2023-03-20T08:17:05;101944.75;;;10.33;85.60
33486;BME280;19824;52.098;5.004;2023-03-20T08:19:46;101938.31;;;10.35;85.34
33486;BME280;19824;52.098;5.004;2023-03-20T08:22:24;101946.09;;;10.38;84.76
33486;BME280;19824;52.098;5.004;2023-03-20T08:24:54;101946.91;;;10.39;84.60
33486;BME280;19824;52.098;5.004;2023-03-20T08:27:31;101949.72;;;10.37;85.06
33486;BME280;19824;52.098;5.004;2023-03-20T08:30:01;101944.16;;;10.40;84.43
33486;BME280;19824;52.098;5.004;2023-03-20T08:32:38;101944.25;;;10.39;83.99
33486;BME280;19824;52.098;5.004;2023-03-20T08:35:08;101939.06;;;10.37;84.27
33486;BME280;19824;52.098;5.004;2023-03-20T08:38:11;101938.09;;;10.38;84.46
33486;BME280;19824;52.098;5.004;2023-03-20T08:40:42;101941.25;;;10.43;84.41
33486;BME280;19824;52.098;5.004;2023-03-20T08:43:18;101938.84;;;10.40;85.23
33486;BME280;19824;52.098;5.004;2023-03-20T08:45:48;101938.84;;;10.40;84.71
33486;BME280;19824;52.098;5.004;2023-03-20T08:48:25;101940.03;;;10.36;84.76
33486;BME280;19824;52.098;5.004;2023-03-20T08:51:03;101943.44;;;10.38;84.73
33486;BME280;19824;52.098;5.004;2023-03-20T08:53:36;101952.59;;;10.34;85.47
33486;BME280;19824;52.098;5.004;2023-03-20T08:56:12;101942.69;;;10.36;85.13
33486;BME280;19824;52.098;5.004;2023-03-20T08:58:49;101952.81;;;10.31;85.75
33486;BME280;19824;52.098;5.004;2023-03-20T09:01:22;101939.53;;;10.42;85.61
33486;BME280;19824;52.098;5.004;2023-03-20T09:04:15;101943.91;;;10.43;85.22
33486;BME280;19824;52.098;5.004;2023-03-20T09:06:45;101945.13;;;10.39;85.77
33486;BME280;19824;52.098;5.004;2023-03-20T09:09:25;101941.97;;;10.45;86.09
33486;BME280;19824;52.098;5.004;2023-03-20T09:11:56;101945.72;;;10.43;86.98
33486;BME280;19824;52.098;5.004;2023-03-20T09:14:33;101950.34;;;10.52;86.40
33486;BME280;19824;52.098;5.004;2023-03-20T09:17:04;101944.34;;;10.61;86.34
33486;BME280;19824;52.098;5.004;2023-03-20T09:19:41;101940.88;;;10.71;86.72
33486;BME280;19824;52.098;5.004;2023-03-20T09:22:13;101940.38;;;10.77;86.27
33486;BME280;19824;52.098;5.004;2023-03-20T09:24:53;101938.47;;;10.79;86.68
33486;BME280;19824;52.098;5.004;2023-03-20T09:27:23;101936.75;;;10.89;86.58
33486;BME280;19824;52.098;5.004;2023-03-20T09:29:59;101935.09;;;10.88;86.30
33486;BME280;19824;52.098;5.004;2023-03-20T09:32:29;101934.84;;;10.91;87.17
33486;BME280;19824;52.098;5.004;2023-03-20T09:35:07;101930.00;;;10.96;87.09
33486;BME280;19824;52.098;5.004;2023-03-20T09:37:37;101922.50;;;11.01;86.47
33486;BME280;19824;52.098;5.004;2023-03-20T09:40:25;101934.75;;;11.03;85.97
33486;BME280;19824;52.098;5.004;2023-03-20T09:43:03;101932.22;;;11.02;86.81
33486;BME280;19824;52.098;5.004;2023-03-20T09:45:49;101925.41;;;11.09;86.46
33486;BME280;19824;52.098;5.004;2023-03-20T09:48:32;101925.41;;;11.09;86.18
33486;BME280;19824;52.098;5.004;2023-03-20T09:51:19;101928.56;;;11.25;86.54
33486;BME280;19824;52.098;5.004;2023-03-20T09:53:54;101929.06;;;11.30;86.36
33486;BME280;19824;52.098;5.004;2023-03-20T09:56:35;101933.28;;;11.43;86.15
33486;BME280;19824;52.098;5.004;2023-03-20T09:59:06;101927.63;;;11.59;85.86
33486;BME280;19824;52.098;5.004;2023-03-20T10:01:47;101925.19;;;11.56;86.60
33486;BME280;19824;52.098;5.004;2023-03-20T10:04:28;101937.09;;;11.63;86.89
33486;BME280;19824;52.098;5.004;2023-03-20T10:06:58;101934.88;;;11.68;85.81
33486;BME280;19824;52.098;5.004;2023-03-20T10:09:35;101923.72;;;11.73;86.05
33486;BME280;19824;52.098;5.004;2023-03-20T10:12:38;101929.88;;;11.74;85.76
33486;BME280;19824;52.098;5.004;2023-03-20T10:15:35;101930.00;;;11.83;85.29
33486;BME280;19824;52.098;5.004;2023-03-20T10:18:19;101923.47;;;11.76;84.91
33486;BME280;19824;52.098;5.004;2023-03-20T10:20:56;101924.94;;;11.80;85.39
33486;BME280;19824;52.098;5.004;2023-03-20T10:23:39;101922.50;;;11.77;84.78
33486;BME280;19824;52.098;5.004;2023-03-20T10:26:13;101927.72;;;11.79;85.05
33486;BME280;19824;52.098;5.004;2023-03-20T10:28:57;101921.78;;;11.75;85.18
33486;BME280;19824;52.098;5.004;2023-03-20T10:31:40;101926.00;;;11.78;85.09
33486;BME280;19824;52.098;5.004;2023-03-20T10:34:31;101920.69;;;11.67;84.49
33486;BME280;19824;52.098;5.004;2023-03-20T10:37:19;101920.94;;;11.64;85.22
33486;BME280;19824;52.098;5.004;2023-03-20T10:40:19;101922.50;;;11.67;84.98
33486;BME280;19824;52.098;5.004;2023-03-20T10:42:56;101920.22;;;11.62;85.09
33486;BME280;19824;52.098;5.004;2023-03-20T10:45:40;101919.72;;;11.68;84.90
33486;BME280;19824;52.098;5.004;2023-03-20T10:48:20;101917.16;;;11.67;84.40
33486;BME280;19824;52.098;5.004;2023-03-20T10:51:02;101909.16;;;11.67;85.06
33486;BME280;19824;52.098;5.004;2023-03-20T10:53:39;101908.69;;;11.72;85.00
33486;BME280;19824;52.098;5.004;2023-03-20T10:56:27;101910.88;;;11.78;84.44
33486;BME280;19824;52.098;5.004;2023-03-20T10:59:04;101908.31;;;11.77;84.36
33486;BME280;19824;52.098;5.004;2023-03-20T11:01:45;101910.88;;;11.78;84.45
33486;BME280;19824;52.098;5.004;2023-03-20T11:04:15;101901.88;;;11.79;84.38
33486;BME280;19824;52.098;5.004;2023-03-20T11:06:56;101902.00;;;11.78;84.20
33486;BME280;19824;52.098;5.004;2023-03-20T11:09:28;101890.94;;;11.82;84.67
33486;BME280;19824;52.098;5.004;2023-03-20T11:12:14;101889.22;;;11.92;84.04
33486;BME280;19824;52.098;5.004;2023-03-20T11:14:45;101887.88;;;11.98;84.49
33486;BME280;19824;52.098;5.004;2023-03-20T11:17:28;101888.59;;;12.00;84.72
33486;BME280;19824;52.098;5.004;2023-03-20T11:20:03;101887.63;;;12.01;84.38
33486;BME280;19824;52.098;5.004;2023-03-20T11:22:40;101873.88;;;12.05;84.62
33486;BME280;19824;52.098;5.004;2023-03-20T11:25:23;101876.63;;;12.15;84.16
33486;BME280;19824;52.098;5.004;2023-03-20T11:28:23;101875.91;;;12.13;84.04
33486;BME280;19824;52.098;5.004;2023-03-20T11:31:04;101868.97;;;12.21;83.99
33486;BME280;19824;52.098;5.004;2023-03-20T11:33:43;101867.00;;;12.23;83.55
33486;BME280;19824;52.098;5.004;2023-03-20T11:36:24;101865.25;;;12.13;84.10
33486;BME280;19824;52.098;5.004;2023-03-20T11:39:04;101859.19;;;12.11;83.84
33486;BME280;19824;52.098;5.004;2023-03-20T11:41:46;101862.56;;;12.13;83.93
33486;BME280;19824;52.098;5.004;2023-03-20T11:44:24;101858.94;;;12.14;84.27
33486;BME280;19824;52.098;5.004;2023-03-20T11:47:03;101860.38;;;12.18;83.93
33486;BME280;19824;52.098;5.004;2023-03-20T11:49:45;101858.34;;;12.10;83.82
33486;BME280;19824;52.098;5.004;2023-03-20T11:52:27;101865.41;;;12.00;84.33
33486;BME280;19824;52.098;5.004;2023-03-20T11:55:22;101866.13;;;12.02;84.01
33486;BME280;19824;52.098;5.004;2023-03-20T11:58:04;101862.56;;;12.13;84.41
33486;BME280;19824;52.098;5.004;2023-03-20T12:00:37;101868.31;;;12.08;84.25
33486;BME280;19824;52.098;5.004;2023-03-20T12:03:40;101867.69;;;12.05;84.66
33486;BME280;19824;52.098;5.004;2023-03-20T12:06:23;101871.31;;;12.15;84.46
33486;BME280;19824;52.098;5.004;2023-03-20T12:08:57;101868.50;;;12.16;84.14
33486;BME280;19824;52.098;5.004;2023-03-20T12:11:46;101863.53;;;12.12;83.33
33486;BME280;19824;52.098;5.004;2023-03-20T12:14:29;101865.16;;;12.03;84.03
33486;BME280;19824;52.098;5.004;2023-03-20T12:17:38;101866.63;;;11.96;83.83
33486;BME280;19824;52.098;5.004;2023-03-20T12:20:27;101873.22;;;11.92;84.62
33486;BME280;19824;52.098;5.004;2023-03-20T12:23:12;101875.25;;;11.89;85.04
33486;BME280;19824;52.098;5.004;2023-03-20T12:25:50;101863.75;;;11.88;84.51
33486;BME280;19824;52.098;5.004;2023-03-20T12:28:36;101866.09;;;11.82;85.18
33486;BME280;19824;52.098;5.004;2023-03-20T12:31:21;101870.09;;;11.76;85.06
33486;BME280;19824;52.098;5.004;2023-03-20T12:34:03;101862.44;;;11.83;85.08
33486;BME280;19824;52.098;5.004;2023-03-20T12:36:41;101865.59;;;11.77;86.01
33486;BME280;19824;52.098;5.004;2023-03-20T12:39:23;101862.00;;;11.67;86.03
33486;BME280;19824;52.098;5.004;2023-03-20T12:42:07;101863.31;;;11.72;86.68
33486;BME280;19824;52.098;5.004;2023-03-20T12:44:52;101852.41;;;11.75;86.37
33486;BME280;19824;52.098;5.004;2023-03-20T12:47:46;101847.06;;;11.75;87.14
33486;BME280;19824;52.098;5.004;2023-03-20T12:50:30;101842.31;;;11.79;86.92
33486;BME280;19824;52.098;5.004;2023-03-20T12:53:18;101835.81;;;11.72;87.39
33486;BME280;19824;52.098;5.004;2023-03-20T12:56:15;101837.03;;;11.68;88.05
33486;BME280;19824;52.098;5.004;2023-03-20T12:58:59;101830.09;;;11.66;88.26
33486;BME280;19824;52.098;5.004;2023-03-20T13:01:37;101833.97;;;11.72;87.55
33486;BME280;19824;52.098;5.004;2023-03-20T13:04:40;101829.25;;;11.65;87.90
33486;BME280;19824;52.098;5.004;2023-03-20T13:07:18;101829.13;;;11.67;88.37
33486;BME280;19824;52.098;5.004;2023-03-20T13:10:09;101829.13;;;11.67;88.61
33486;BME280;19824;52.098;5.004;2023-03-20T13:12:57;101825.38;;;11.69;88.90
33486;BME280;19824;52.098;5.004;2023-03-20T13:15:52;101824.75;;;11.66;89.19
33486;BME280;19824;52.098;5.004;2023-03-20T13:18:47;101823.34;;;11.62;88.87
33486;BME280;19824;52.098;5.004;2023-03-20T13:21:30;101819.31;;;11.67;89.15
33486;BME280;19824;52.098;5.004;2023-03-20T13:24:23;101816.06;;;11.64;89.70
33486;BME280;19824;52.098;5.004;2023-03-20T13:27:02;101811.81;;;11.61;89.98
33486;BME280;19824;52.098;5.004;2023-03-20T13:29:49;101806.72;;;11.58;89.93
33486;BME280;19824;52.098;5.004;2023-03-20T13:32:43;101808.31;;;11.61;89.11
33486;BME280;19824;52.098;5.004;2023-03-20T13:35:33;101805.38;;;11.53;90.15
33486;BME280;19824;52.098;5.004;2023-03-20T13:38:13;101800.78;;;11.55;89.65
33486;BME280;19824;52.098;5.004;2023-03-20T13:40:57;101800.56;;;11.58;90.15
33486;BME280;19824;52.098;5.004;2023-03-20T13:43:39;101799.56;;;11.59;90.37
33486;BME280;19824;52.098;5.004;2023-03-20T13:46:17;101802.63;;;11.54;90.10
33486;BME280;19824;52.098;5.004;2023-03-20T13:49:07;101794.38;;;11.46;91.28
33486;BME280;19824;52.098;5.004;2023-03-20T13:51:46;101803.69;;;11.52;90.25
33486;BME280;19824;52.098;5.004;2023-03-20T13:54:45;101795.09;;;11.48;90.91
33486;BME280;19824;52.098;5.004;2023-03-20T13:57:43;101801.53;;;11.46;90.93
33486;BME280;19824;52.098;5.004;2023-03-20T14:00:27;101796.66;;;11.51;90.86
